createdAt,value
2023-06-17T00:00:55.732Z,97212.09
2023-06-17T00:03:22.284Z,97220.38
2023-06-17T00:05:48.749Z,97213.94
2023-06-17T00:08:15.309Z,97218.53
2023-06-17T00:10:41.765Z,97210.91
2023-06-17T00:13:08.682Z,97208.28
2023-06-17T00:15:37.660Z,97195.63
2023-06-17T00:18:06.462Z,97206.94
2023-06-17T00:20:33.847Z,97201.81
2023-06-17T00:23:00.295Z,97202.09
2023-06-17T00:25:26.702Z,97190.66
2023-06-17T00:27:53.114Z,97200.47
2023-06-17T00:30:19.877Z,97202.63
2023-06-17T00:32:46.609Z,97193.44
2023-06-17T00:35:13.125Z,97212.59
2023-06-17T00:37:39.672Z,97195.44
2023-06-17T00:40:09.063Z,97209.81
2023-06-17T00:42:36.139Z,97195.88
2023-06-17T00:45:02.647Z,97206.31
2023-06-17T00:47:29.258Z,97206.31
2023-06-17T00:49:55.809Z,97196.25
2023-06-17T00:52:40.118Z,97209.09
2023-06-17T00:55:09.852Z,97193.00
2023-06-17T00:57:38.526Z,97193.59
2023-06-17T01:00:10.874Z,97192.06
2023-06-17T01:02:41.491Z,97182.00
2023-06-17T01:05:13.833Z,97175.09
2023-06-17T01:07:57.356Z,97190.13
2023-06-17T01:10:59.189Z,97191.03
2023-06-17T01:13:27.857Z,97195.22
2023-06-17T01:15:55.105Z,97197.50
2023-06-17T01:18:22.216Z,97180.19
2023-06-17T01:20:54.560Z,97197.66
2023-06-17T01:23:22.406Z,97190.00
2023-06-17T01:25:50.697Z,97186.31
2023-06-17T01:28:17.862Z,97194.13
2023-06-17T01:30:45.914Z,97192.91
2023-06-17T01:33:14.733Z,97193.69
2023-06-17T01:35:47.094Z,97185.53
2023-06-17T01:38:21.989Z,97181.41
2023-06-17T01:40:53.183Z,97172.72
2023-06-17T01:43:20.841Z,97176.41
2023-06-17T01:45:47.731Z,97181.63
2023-06-17T01:48:14.370Z,97179.66
2023-06-17T01:50:40.770Z,97181.19
2023-06-17T01:53:07.152Z,97183.84
2023-06-17T01:55:33.613Z,97176.06
2023-06-17T01:57:59.985Z,97171.91
2023-06-17T02:00:27.652Z,97170.84
2023-06-17T02:02:54.210Z,97170.25
2023-06-17T02:05:21.272Z,97173.63
2023-06-17T02:07:48.823Z,97163.22
2023-06-17T02:10:16.465Z,97162.78
2023-06-17T02:12:42.965Z,97156.53
2023-06-17T02:15:10.008Z,97165.53
2023-06-17T02:17:36.689Z,97169.19
2023-06-17T02:20:07.382Z,97171.78
2023-06-17T02:22:33.930Z,97166.28
2023-06-17T02:25:00.508Z,97160.34
2023-06-17T02:27:26.896Z,97153.75
2023-06-17T02:29:53.329Z,97164.16
2023-06-17T02:32:19.743Z,97152.94
2023-06-17T02:34:49.155Z,97165.03
2023-06-17T02:37:16.384Z,97154.59
2023-06-17T02:39:43.389Z,97154.78
2023-06-17T02:42:09.994Z,97155.41
2023-06-17T02:44:37.055Z,97145.34
2023-06-17T02:47:04.378Z,97154.81
2023-06-17T02:49:30.970Z,97147.94
2023-06-17T02:51:57.352Z,97142.91
2023-06-17T02:54:23.776Z,97150.38
2023-06-17T02:56:50.272Z,97143.06
2023-06-17T02:59:16.787Z,97145.34
2023-06-17T03:01:44.488Z,97152.38
2023-06-17T03:04:14.278Z,97140.44
2023-06-17T03:06:45.574Z,97150.56
2023-06-17T03:09:12.176Z,97152.09
2023-06-17T03:11:38.678Z,97145.81
2023-06-17T03:14:05.075Z,97144.78
2023-06-17T03:16:34.994Z,97138.78
2023-06-17T03:19:02.381Z,97144.00
2023-06-17T03:21:30.666Z,97151.53
2023-06-17T03:24:00.436Z,97140.50
2023-06-17T03:26:27.124Z,97137.94
2023-06-17T03:28:54.347Z,97146.19
2023-06-17T03:31:22.582Z,97144.97
2023-06-17T03:33:51.706Z,97147.44
2023-06-17T03:36:25.876Z,97146.94
2023-06-17T03:38:52.428Z,97139.63
2023-06-17T03:41:18.843Z,97156.50
2023-06-17T03:43:45.433Z,97156.00
2023-06-17T03:46:11.828Z,97159.53
2023-06-17T03:48:38.212Z,97151.09
2023-06-17T03:51:04.624Z,97144.69
2023-06-17T03:53:31.068Z,97155.81
2023-06-17T03:55:57.562Z,97150.94
2023-06-17T03:58:23.968Z,97155.78
2023-06-17T04:00:50.380Z,97148.91
2023-06-17T04:03:16.988Z,97161.59
2023-06-17T04:05:43.961Z,97147.03
2023-06-17T04:08:10.504Z,97137.69
2023-06-17T04:10:37.115Z,97148.81
2023-06-17T04:13:03.827Z,97152.91
2023-06-17T04:15:30.389Z,97149.78
2023-06-17T04:17:58.457Z,97156.00
2023-06-17T04:20:26.746Z,97157.78
2023-06-17T04:22:53.381Z,97155.13
2023-06-17T04:25:21.895Z,97157.78
2023-06-17T04:27:50.100Z,97154.34
2023-06-17T04:30:17.446Z,97158.25
2023-06-17T04:32:44.661Z,97154.47
2023-06-17T04:35:12.154Z,97144.00
2023-06-17T04:37:38.708Z,97151.78
2023-06-17T04:40:08.436Z,97138.63
2023-06-17T04:42:34.897Z,97139.00
2023-06-17T04:45:02.735Z,97138.69
2023-06-17T04:47:29.654Z,97137.84
2023-06-17T04:49:56.834Z,97135.88
2023-06-17T04:52:25.717Z,97139.06
2023-06-17T04:54:52.744Z,97129.19
2023-06-17T04:57:19.648Z,97126.31
2023-06-17T04:59:46.159Z,97126.16
2023-06-17T05:02:12.732Z,97141.09
2023-06-17T05:04:39.131Z,97139.94
2023-06-17T05:07:05.861Z,97145.84
2023-06-17T05:09:32.294Z,97143.66
2023-06-17T05:11:58.736Z,97143.06
2023-06-17T05:14:25.469Z,97136.63
2023-06-17T05:16:51.885Z,97141.97
2023-06-17T05:19:18.634Z,97147.03
2023-06-17T05:21:45.027Z,97146.38
2023-06-17T05:24:11.474Z,97145.47
2023-06-17T05:26:37.914Z,97148.09
2023-06-17T05:29:04.299Z,97146.22
2023-06-17T05:31:30.836Z,97134.34
2023-06-17T05:33:57.269Z,97144.47
2023-06-17T05:36:26.282Z,97146.03
2023-06-17T05:38:53.029Z,97149.81
2023-06-17T05:41:19.433Z,97153.44
2023-06-17T05:43:47.400Z,97146.78
2023-06-17T05:46:13.861Z,97148.63
2023-06-17T05:48:40.373Z,97158.94
2023-06-17T05:51:07.093Z,97156.25
2023-06-17T05:53:33.567Z,97155.16
2023-06-17T05:55:59.991Z,97154.59
2023-06-17T05:58:26.451Z,97153.81
2023-06-17T06:00:52.919Z,97155.50
2023-06-17T06:03:19.389Z,97157.88
2023-06-17T06:05:45.900Z,97149.72
2023-06-17T06:08:12.298Z,97151.66
2023-06-17T06:10:38.690Z,97164.94
2023-06-17T06:13:05.848Z,97161.91
2023-06-17T06:15:33.540Z,97158.13
2023-06-17T06:18:00.030Z,97163.78
2023-06-17T06:20:27.227Z,97164.47
2023-06-17T06:22:54.398Z,97154.13
2023-06-17T06:25:20.995Z,97169.69
2023-06-17T06:27:50.650Z,97168.03
2023-06-17T06:30:17.135Z,97163.34
2023-06-17T06:32:43.593Z,97165.03
2023-06-17T06:35:10.047Z,97171.06
2023-06-17T06:37:36.459Z,97171.56
2023-06-17T06:40:06.372Z,97168.13
2023-06-17T06:42:32.752Z,97175.56
2023-06-17T06:44:59.152Z,97167.66
2023-06-17T06:47:25.713Z,97173.78
2023-06-17T06:49:52.135Z,97170.66
2023-06-17T06:52:18.572Z,97175.56
2023-06-17T06:54:44.971Z,97182.28
2023-06-17T06:57:11.389Z,97182.69
2023-06-17T06:59:37.828Z,97181.22
2023-06-17T07:02:04.410Z,97176.59
2023-06-17T07:04:31.421Z,97186.97
2023-06-17T07:06:57.876Z,97189.03
2023-06-17T07:09:24.268Z,97179.38
2023-06-17T07:11:50.808Z,97186.19
2023-06-17T07:14:17.199Z,97186.34
2023-06-17T07:16:43.642Z,97192.63
2023-06-17T07:19:10.091Z,97194.47
2023-06-17T07:21:36.496Z,97190.25
2023-06-17T07:24:02.986Z,97196.84
2023-06-17T07:26:29.441Z,97202.03
2023-06-17T07:28:56.347Z,97192.47
2023-06-17T07:31:24.172Z,97190.25
2023-06-17T07:33:52.650Z,97192.81
2023-06-17T07:36:24.382Z,97189.00
2023-06-17T07:38:51.607Z,97194.16
2023-06-17T07:41:18.589Z,97187.59
2023-06-17T07:43:44.973Z,97195.22
2023-06-17T07:46:11.509Z,97190.09
2023-06-17T07:48:38.023Z,97192.47
2023-06-17T07:51:04.433Z,97182.63
2023-06-17T07:53:30.826Z,97190.97
2023-06-17T07:55:57.217Z,97185.34
2023-06-17T07:58:23.618Z,97187.28
2023-06-17T08:00:50.076Z,97187.28
2023-06-17T08:03:16.614Z,97198.63
2023-06-17T08:05:43.217Z,97179.69
2023-06-17T08:08:09.624Z,97189.91
2023-06-17T08:10:36.146Z,97189.16
2023-06-17T08:13:02.731Z,97183.09
2023-06-17T08:15:29.334Z,97189.16
2023-06-17T08:17:55.822Z,97172.53
2023-06-17T08:20:22.977Z,97182.72
2023-06-17T08:22:49.811Z,97178.56
2023-06-17T08:25:16.332Z,97175.94
2023-06-17T08:27:48.568Z,97186.50
2023-06-17T08:30:15.106Z,97174.34
2023-06-17T08:32:42.165Z,97173.97
2023-06-17T08:35:08.676Z,97177.03
2023-06-17T08:37:35.099Z,97175.88
2023-06-17T08:40:01.796Z,97162.63
2023-06-17T08:42:29.082Z,97167.22
2023-06-17T08:44:58.421Z,97171.00
2023-06-17T08:47:25.831Z,97168.34
2023-06-17T08:49:55.644Z,97164.94
2023-06-17T08:52:22.836Z,97153.97
2023-06-17T08:54:50.025Z,97177.03
2023-06-17T08:57:18.727Z,97167.94
2023-06-17T08:59:45.478Z,97162.28
2023-06-17T09:02:12.098Z,97164.53
2023-06-17T09:04:38.689Z,97154.69
2023-06-17T09:07:05.518Z,97146.00
2023-06-17T09:09:31.938Z,97150.16
2023-06-17T09:12:06.100Z,97156.19
2023-06-17T09:14:33.684Z,97165.25
2023-06-17T09:17:01.946Z,97154.31
2023-06-17T09:19:31.557Z,97154.66
2023-06-17T09:22:05.270Z,97148.22
2023-06-17T09:24:31.910Z,97145.19
2023-06-17T09:26:58.541Z,97145.56
2023-06-17T09:29:25.019Z,97151.25
2023-06-17T09:31:56.234Z,97152.72
2023-06-17T09:34:23.357Z,97138.69
2023-06-17T09:37:02.754Z,97128.34
2023-06-17T09:39:33.291Z,97138.13
2023-06-17T09:42:18.005Z,97130.94
2023-06-17T09:44:47.718Z,97135.91
2023-06-17T09:47:14.686Z,97134.78
2023-06-17T09:49:44.759Z,97132.91
2023-06-17T09:52:11.902Z,97121.16
2023-06-17T09:54:39.237Z,97130.69
2023-06-17T09:57:08.625Z,97125.00
2023-06-17T09:59:35.236Z,97129.16
2023-06-17T10:02:01.648Z,97118.53
2023-06-17T10:04:28.110Z,97118.84
2023-06-17T10:06:54.753Z,97123.28
2023-06-17T10:09:21.454Z,97127.72
2023-06-17T10:11:53.902Z,97116.72
2023-06-17T10:14:30.791Z,97111.09
2023-06-17T10:16:58.357Z,97120.28
2023-06-17T10:19:30.079Z,97121.78
2023-06-17T10:21:59.632Z,97119.63
2023-06-17T10:24:27.330Z,97123.47
2023-06-17T10:26:54.513Z,97109.84
2023-06-17T10:29:21.867Z,97120.09
2023-06-17T10:31:48.508Z,97118.91
2023-06-17T10:34:16.909Z,97120.03
2023-06-17T10:36:43.519Z,97126.09
2023-06-17T10:39:12.174Z,97127.59
2023-06-17T10:41:41.573Z,97118.88
2023-06-17T10:44:35.235Z,97126.88
2023-06-17T10:47:03.233Z,97116.63
2023-06-17T10:49:43.152Z,97118.09
2023-06-17T10:52:14.127Z,97124.47
2023-06-17T10:54:52.869Z,97132.38
2023-06-17T10:57:32.713Z,97111.91
2023-06-17T11:00:11.200Z,97099.41
2023-06-17T11:02:38.885Z,97100.50
2023-06-17T11:05:09.623Z,97108.84
2023-06-17T11:07:37.317Z,97101.59
2023-06-17T11:10:04.366Z,97104.94
2023-06-17T11:12:31.032Z,97113.63
2023-06-17T11:15:01.116Z,97109.09
2023-06-17T11:17:28.023Z,97108.69
2023-06-17T11:19:54.472Z,97104.50
2023-06-17T11:22:20.900Z,97103.66
2023-06-17T11:24:47.547Z,97092.00
2023-06-17T11:27:14.062Z,97095.75
2023-06-17T11:29:44.546Z,97110.50
2023-06-17T11:32:11.367Z,97094.22
2023-06-17T11:34:37.849Z,97083.19
2023-06-17T11:37:07.672Z,97094.91
2023-06-17T11:39:35.641Z,97088.81
2023-06-17T11:42:04.496Z,97088.53
2023-06-17T11:44:35.044Z,97109.31
2023-06-17T11:47:09.837Z,97100.66
2023-06-17T11:49:36.770Z,97077.94
2023-06-17T11:52:10.883Z,97066.88
2023-06-17T11:54:46.822Z,97070.00
2023-06-17T11:57:18.713Z,97077.63
2023-06-17T11:59:45.588Z,97099.19
2023-06-17T12:02:12.733Z,97073.94
2023-06-17T12:04:39.873Z,97068.69
2023-06-17T12:07:07.615Z,97075.88
2023-06-17T12:09:49.775Z,97077.34
2023-06-17T12:12:36.544Z,97070.81
2023-06-17T12:15:15.011Z,97064.31
2023-06-17T12:17:47.526Z,97065.28
2023-06-17T12:20:18.026Z,97073.97
2023-06-17T12:22:45.451Z,97064.84
2023-06-17T12:25:12.625Z,97049.06
2023-06-17T12:27:40.175Z,97049.84
2023-06-17T12:30:07.988Z,97049.84
2023-06-17T12:32:35.308Z,97048.69
2023-06-17T12:35:02.009Z,97055.81
2023-06-17T12:37:30.022Z,97045.13
2023-06-17T12:39:59.306Z,97057.91
2023-06-17T12:42:26.445Z,97056.84
2023-06-17T12:44:53.388Z,97044.22
2023-06-17T12:47:20.350Z,97045.78
2023-06-17T12:49:47.670Z,97041.66
2023-06-17T12:52:14.631Z,97026.16
2023-06-17T12:54:43.333Z,97040.81
2023-06-17T12:57:10.378Z,97037.38
2023-06-17T12:59:37.108Z,97027.97
2023-06-17T13:02:03.906Z,97035.13
2023-06-17T13:04:30.895Z,97034.28
2023-06-17T13:06:58.268Z,97038.69
2023-06-17T13:09:25.174Z,97041.16
2023-06-17T13:11:53.052Z,97020.53
2023-06-17T13:14:20.685Z,97016.41
2023-06-17T13:16:47.891Z,97027.97
2023-06-17T13:19:16.858Z,97025.31
2023-06-17T13:21:44.140Z,97016.94
2023-06-17T13:24:10.592Z,97015.78
2023-06-17T13:26:37.565Z,97007.88
2023-06-17T13:29:04.591Z,97018.53
2023-06-17T13:31:31.782Z,97010.19
2023-06-17T13:33:58.301Z,97019.06
2023-06-17T13:36:26.216Z,97009.38
2023-06-17T13:38:53.014Z,97010.47
2023-06-17T13:41:19.674Z,97010.69
2023-06-17T13:43:46.225Z,97017.03
2023-06-17T13:46:12.776Z,97006.94
2023-06-17T13:48:39.169Z,97024.66
2023-06-17T13:51:05.615Z,97014.81
2023-06-17T13:53:32.248Z,97012.09
2023-06-17T13:55:59.576Z,97010.78
2023-06-17T13:58:26.353Z,97013.09
2023-06-17T14:00:53.493Z,97013.59
2023-06-17T14:03:20.992Z,97005.69
2023-06-17T14:05:47.956Z,97001.09
2023-06-17T14:08:14.628Z,97007.13
2023-06-17T14:10:41.584Z,97001.50
2023-06-17T14:13:08.224Z,96992.06
2023-06-17T14:15:34.727Z,96983.66
2023-06-17T14:18:01.687Z,96990.72
2023-06-17T14:20:28.244Z,96991.06
2023-06-17T14:22:57.734Z,96988.75
2023-06-17T14:25:25.553Z,96984.63
2023-06-17T14:27:53.168Z,96986.06
2023-06-17T14:30:20.317Z,96986.66
2023-06-17T14:32:49.088Z,96981.66
2023-06-17T14:35:18.693Z,96988.22
2023-06-17T14:37:46.957Z,96975.94
2023-06-17T14:40:14.784Z,96971.81
2023-06-17T14:42:41.671Z,96984.97
2023-06-17T14:45:09.863Z,96963.75
2023-06-17T14:47:36.890Z,96976.66
2023-06-17T14:50:04.380Z,96970.88
2023-06-17T14:52:30.938Z,96962.56
2023-06-17T14:54:57.376Z,96968.09
2023-06-17T14:57:23.941Z,96973.97
2023-06-17T14:59:50.755Z,96957.63
2023-06-17T15:02:54.295Z,96964.06
2023-06-17T15:05:21.386Z,96964.75
2023-06-17T15:07:49.734Z,96963.88
2023-06-17T15:10:16.405Z,96959.78
2023-06-17T15:12:43.204Z,96960.31
2023-06-17T15:15:11.939Z,96967.25
2023-06-17T15:17:38.992Z,96955.06
2023-06-17T15:20:06.444Z,96947.91
2023-06-17T15:22:32.836Z,96956.97
2023-06-17T15:24:59.233Z,96949.69
2023-06-17T15:27:25.660Z,96954.47
2023-06-17T15:29:52.061Z,96946.81
2023-06-17T15:32:19.633Z,96952.13
2023-06-17T15:34:47.929Z,96949.22
2023-06-17T15:37:14.420Z,96948.19
2023-06-17T15:39:40.935Z,96951.66
2023-06-17T15:42:07.628Z,96952.44
2023-06-17T15:44:34.099Z,96955.94
2023-06-17T15:47:00.519Z,96955.59
2023-06-17T15:49:26.920Z,96961.72
2023-06-17T15:51:53.302Z,96957.97
2023-06-17T15:54:26.278Z,96945.59
2023-06-17T15:56:53.010Z,96949.03
2023-06-17T15:59:19.456Z,96950.44
2023-06-17T16:01:46.432Z,96950.69
2023-06-17T16:04:42.540Z,96952.59
2023-06-17T16:07:11.476Z,96950.63
2023-06-17T16:09:48.828Z,96936.97
2023-06-17T16:12:16.775Z,96943.00
2023-06-17T16:14:44.774Z,96945.72
2023-06-17T16:17:11.900Z,96941.16
2023-06-17T16:19:39.067Z,96937.41
2023-06-17T16:22:13.312Z,96929.75
2023-06-17T16:24:41.569Z,96949.06
2023-06-17T16:27:08.225Z,96938.81
2023-06-17T16:29:34.779Z,96934.44
2023-06-17T16:32:01.284Z,96940.84
2023-06-17T16:34:28.088Z,96940.13
2023-06-17T16:36:54.608Z,96934.44
2023-06-17T16:39:21.392Z,96937.78
2023-06-17T16:41:47.906Z,96937.47
2023-06-17T16:44:14.321Z,96931.13
2023-06-17T16:46:41.189Z,96947.63
2023-06-17T16:49:07.613Z,96932.22
2023-06-17T16:51:34.115Z,96941.31
2023-06-17T16:54:03.678Z,96952.72
2023-06-17T16:56:31.899Z,96948.56
2023-06-17T16:58:58.430Z,96947.75
2023-06-17T17:01:25.042Z,96947.75
2023-06-17T17:03:51.817Z,96953.53
2023-06-17T17:06:18.353Z,96940.34
2023-06-17T17:08:48.991Z,96947.19
2023-06-17T17:11:15.733Z,96941.16
2023-06-17T17:13:48.751Z,96937.03
2023-06-17T17:16:16.973Z,96949.22
2023-06-17T17:18:43.432Z,96938.63
2023-06-17T17:21:09.849Z,96946.13
2023-06-17T17:23:36.316Z,96951.47
2023-06-17T17:26:02.742Z,96945.84
2023-06-17T17:28:29.731Z,96947.00
2023-06-17T17:30:56.260Z,96948.66
2023-06-17T17:33:23.955Z,96955.91
2023-06-17T17:35:51.286Z,96949.91
2023-06-17T17:38:17.678Z,96960.94
2023-06-17T17:40:44.076Z,96950.78
2023-06-17T17:43:10.571Z,96961.00
2023-06-17T17:45:37.017Z,96958.75
2023-06-17T17:48:03.614Z,96959.97
2023-06-17T17:50:30.059Z,96961.13
2023-06-17T17:52:56.492Z,96959.28
2023-06-17T17:55:22.945Z,96961.22
2023-06-17T17:57:49.333Z,96974.50
2023-06-17T18:00:16.093Z,96960.19
2023-06-17T18:02:42.556Z,96964.03
2023-06-17T18:05:09.418Z,96970.88
2023-06-17T18:07:36.100Z,96967.91
2023-06-17T18:10:03.775Z,96974.38
2023-06-17T18:12:30.506Z,96971.81
2023-06-17T18:14:57.404Z,96976.41
2023-06-17T18:17:23.982Z,96969.31
2023-06-17T18:19:50.421Z,96978.78
2023-06-17T18:22:16.918Z,96973.13
2023-06-17T18:24:43.312Z,96972.03
2023-06-17T18:27:10.669Z,96981.94
2023-06-17T18:29:38.017Z,96976.66
2023-06-17T18:32:05.179Z,96967.63
2023-06-17T18:34:31.559Z,96969.56
2023-06-17T18:36:57.969Z,96979.09
2023-06-17T18:39:24.379Z,96980.66
2023-06-17T18:41:51.041Z,96971.59
2023-06-17T18:44:17.517Z,96964.44
2023-06-17T18:46:44.060Z,96966.72
2023-06-17T18:49:21.218Z,96981.81
2023-06-17T18:51:47.869Z,96980.72
2023-06-17T18:54:14.295Z,96972.44
2023-06-17T18:56:40.816Z,96975.84
2023-06-17T18:59:07.350Z,96981.50
2023-06-17T19:01:35.169Z,96988.66
2023-06-17T19:04:04.756Z,96992.78
2023-06-17T19:06:31.146Z,96984.84
2023-06-17T19:08:57.585Z,96997.69
2023-06-17T19:11:24.049Z,96993.50
2023-06-17T19:13:50.494Z,96999.13
2023-06-17T19:16:18.183Z,96993.44
2023-06-17T19:18:44.965Z,96997.19
2023-06-17T19:21:11.437Z,96995.22
2023-06-17T19:23:37.829Z,97002.34
2023-06-17T19:26:04.269Z,97008.34
2023-06-17T19:28:30.718Z,96998.84
2023-06-17T19:30:57.154Z,97004.50
2023-06-17T19:33:23.695Z,97005.94
2023-06-17T19:35:50.217Z,97011.19
2023-06-17T19:38:16.750Z,97002.81
2023-06-17T19:40:43.185Z,97003.84
2023-06-17T19:43:09.629Z,97014.75
2023-06-17T19:45:37.209Z,97010.50
2023-06-17T19:48:04.977Z,97019.09
2023-06-17T19:50:33.429Z,97014.88
2023-06-17T19:53:00.378Z,97017.09
2023-06-17T19:55:26.792Z,97017.44
2023-06-17T19:57:53.391Z,97023.38
2023-06-17T20:00:20.071Z,97027.34
2023-06-17T20:02:47.187Z,97022.38
2023-06-17T20:05:13.648Z,97035.91
2023-06-17T20:07:40.071Z,97030.91
2023-06-17T20:10:06.993Z,97027.78
2023-06-17T20:12:33.406Z,97039.34
2023-06-17T20:14:59.831Z,97033.97
2023-06-17T20:17:27.005Z,97036.47
2023-06-17T20:19:56.402Z,97040.53
2023-06-17T20:22:24.304Z,97037.81
2023-06-17T20:24:50.867Z,97035.00
2023-06-17T20:27:17.322Z,97023.91
2023-06-17T20:29:44.273Z,97037.03
2023-06-17T20:32:12.143Z,97027.97
2023-06-17T20:34:38.679Z,97036.22
2023-06-17T20:37:05.447Z,97026.34
2023-06-17T20:39:31.887Z,97024.72
2023-06-17T20:41:58.926Z,97023.97
2023-06-17T20:44:25.633Z,97032.16
2023-06-17T20:46:53.479Z,97030.19
2023-06-17T20:49:20.003Z,97024.78
2023-06-17T20:51:46.402Z,97030.78
2023-06-17T20:54:12.876Z,97023.91
2023-06-17T20:56:39.442Z,97029.47
2023-06-17T20:59:06.488Z,97035.81
2023-06-17T21:01:32.891Z,97026.25
2023-06-17T21:03:59.359Z,97025.91
2023-06-17T21:06:25.848Z,97020.47
2023-06-17T21:08:52.288Z,97033.97
2023-06-17T21:11:18.818Z,97032.38
2023-06-17T21:13:45.412Z,97032.31
2023-06-17T21:16:11.856Z,97026.22
2023-06-17T21:18:38.344Z,97038.16
2023-06-17T21:21:04.740Z,97039.94
2023-06-17T21:23:31.235Z,97034.16
2023-06-17T21:26:00.301Z,97036.72
2023-06-17T21:28:27.190Z,97040.41
2023-06-17T21:30:53.613Z,97035.88
2023-06-17T21:33:19.996Z,97027.47
2023-06-17T21:35:46.431Z,97026.22
2023-06-17T21:38:12.829Z,97028.84
2023-06-17T21:40:39.232Z,97014.47
2023-06-17T21:43:05.623Z,97031.34
2023-06-17T21:45:32.023Z,97032.44
2023-06-17T21:47:58.536Z,97015.56
2023-06-17T21:50:24.955Z,97023.75
2023-06-17T21:52:51.351Z,97026.34
2023-06-17T21:55:17.771Z,97030.06
2023-06-17T21:57:44.261Z,97023.56
2023-06-17T22:00:14.438Z,97022.66
2023-06-17T22:02:41.872Z,97024.03
2023-06-17T22:05:08.900Z,97018.34
2023-06-17T22:07:35.958Z,97019.31
2023-06-17T22:10:02.584Z,97030.56
2023-06-17T22:12:29.017Z,97029.88
2023-06-17T22:14:55.513Z,97028.56
2023-06-17T22:17:22.159Z,97031.53
2023-06-17T22:19:48.784Z,97037.88
2023-06-17T22:22:15.264Z,97030.53
2023-06-17T22:24:42.440Z,97023.41
2023-06-17T22:27:12.775Z,97021.75
2023-06-17T22:29:39.173Z,97022.34
2023-06-17T22:32:06.128Z,97023.44
2023-06-17T22:34:32.624Z,97018.88
2023-06-17T22:36:59.661Z,97028.78
2023-06-17T22:39:26.040Z,97029.03
2023-06-17T22:41:52.481Z,97022.94
2023-06-17T22:44:18.872Z,97027.69
2023-06-17T22:46:45.354Z,97026.50
2023-06-17T22:49:11.780Z,97029.22
2023-06-17T22:51:38.850Z,97013.19
2023-06-17T22:54:05.632Z,97015.06
2023-06-17T22:56:32.041Z,97019.88
2023-06-17T22:58:58.411Z,97014.47
2023-06-17T23:01:24.812Z,97017.78
2023-06-17T23:03:51.227Z,97016.00
2023-06-17T23:06:17.624Z,97011.78
2023-06-17T23:08:44.018Z,97025.88
2023-06-17T23:11:10.428Z,97021.41
2023-06-17T23:13:36.826Z,97014.66
2023-06-17T23:16:03.388Z,97018.78
2023-06-17T23:18:29.816Z,97022.16
2023-06-17T23:20:56.230Z,97005.09
2023-06-17T23:23:22.656Z,97012.59
2023-06-17T23:25:50.649Z,97012.44
2023-06-17T23:28:19.025Z,97005.66
2023-06-17T23:30:45.661Z,97024.19
2023-06-17T23:33:14.820Z,97012.94
2023-06-17T23:35:42.271Z,97009.97
2023-06-17T23:38:08.689Z,97005.00
2023-06-17T23:40:35.281Z,97006.50
2023-06-17T23:43:01.823Z,97011.94
2023-06-17T23:45:28.909Z,97008.03
2023-06-17T23:47:55.499Z,97006.16
2023-06-17T23:50:22.958Z,97008.44
2023-06-17T23:52:49.654Z,97014.03
2023-06-17T23:55:16.217Z,97003.47
2023-06-17T23:57:42.997Z,97024.50
